C2305 KCRP-KCRP
Flight info
| Callsign | C2305 |
|---|---|
| Flight time | 0h 7m |
| Altitude | VFR |
| Route | FF |
| Aircraft | A400/H-VGDW/C |
Departure
| Time | 2026-04-27 03:09 |
|---|---|
| Airport | Corpus Christi International Airport (KCRP) |
Arrival
| Time | 2026-04-27 03:17 |
|---|---|
| Airport | Corpus Christi International Airport (KCRP) |
| Time | Latitude | Longitude | Altitude | Speed | Heading |
|---|---|---|---|---|---|
| 2026-04-27 02:50 | 27.48001 | -95.33977 | 5562 ft | 282 kts | 272° |
| 2026-04-27 02:50 | 27.48171 | -95.36187 | 5560 ft | 282 kts | 272° |
| 2026-04-27 02:50 | 27.48339 | -95.38387 | 5558 ft | 282 kts | 272° |
| 2026-04-27 02:51 | 27.48502 | -95.40585 | 5559 ft | 281 kts | 272° |
| 2026-04-27 02:51 | 27.48665 | -95.42776 | 5558 ft | 281 kts | 272° |
| 2026-04-27 02:51 | 27.48833 | -95.44974 | 5561 ft | 282 kts | 272° |
| 2026-04-27 02:51 | 27.49005 | -95.47184 | 5563 ft | 283 kts | 272° |
| 2026-04-27 02:52 | 27.49166 | -95.49357 | 5558 ft | 283 kts | 272° |
| 2026-04-27 02:52 | 27.49326 | -95.51563 | 5561 ft | 283 kts | 272° |
| 2026-04-27 02:52 | 27.49487 | -95.53775 | 5559 ft | 284 kts | 272° |
| 2026-04-27 02:52 | 27.49655 | -95.55975 | 5561 ft | 282 kts | 272° |
| 2026-04-27 02:53 | 27.49820 | -95.58174 | 5559 ft | 279 kts | 272° |
| 2026-04-27 02:53 | 27.49983 | -95.60363 | 5561 ft | 283 kts | 272° |
| 2026-04-27 02:53 | 27.50156 | -95.62579 | 5563 ft | 285 kts | 272° |
| 2026-04-27 02:53 | 27.50317 | -95.64790 | 5560 ft | 283 kts | 272° |
| 2026-04-27 02:54 | 27.50480 | -95.67045 | 5565 ft | 299 kts | 272° |
| 2026-04-27 02:54 | 27.50653 | -95.69434 | 5565 ft | 312 kts | 272° |
| 2026-04-27 02:54 | 27.50833 | -95.71893 | 5564 ft | 317 kts | 272° |
| 2026-04-27 02:54 | 27.51016 | -95.74357 | 5557 ft | 315 kts | 272° |
| 2026-04-27 02:55 | 27.51193 | -95.76830 | 5547 ft | 316 kts | 272° |
| 2026-04-27 02:55 | 27.51376 | -95.79295 | 5542 ft | 316 kts | 272° |
| 2026-04-27 02:55 | 27.51558 | -95.81754 | 5542 ft | 315 kts | 272° |
| 2026-04-27 02:55 | 27.51738 | -95.84230 | 5544 ft | 317 kts | 272° |
| 2026-04-27 02:56 | 27.51909 | -95.86704 | 5539 ft | 317 kts | 272° |
| 2026-04-27 02:56 | 27.52086 | -95.89175 | 5552 ft | 316 kts | 272° |
| 2026-04-27 02:56 | 27.52260 | -95.91609 | 5546 ft | 315 kts | 272° |
| 2026-04-27 02:56 | 27.52436 | -95.94077 | 5543 ft | 316 kts | 272° |
| 2026-04-27 02:57 | 27.52614 | -95.96541 | 5539 ft | 315 kts | 272° |
| 2026-04-27 02:57 | 27.52793 | -95.99010 | 5543 ft | 316 kts | 272° |
| 2026-04-27 02:57 | 27.52968 | -96.01470 | 5542 ft | 315 kts | 272° |
| 2026-04-27 02:57 | 27.53145 | -96.03930 | 5541 ft | 316 kts | 272° |
| 2026-04-27 02:58 | 27.53320 | -96.06397 | 5539 ft | 316 kts | 272° |
| 2026-04-27 02:58 | 27.53494 | -96.08869 | 5540 ft | 316 kts | 272° |
| 2026-04-27 02:58 | 27.53665 | -96.11342 | 5540 ft | 315 kts | 272° |
| 2026-04-27 02:58 | 27.53840 | -96.13804 | 5543 ft | 316 kts | 272° |
| 2026-04-27 02:59 | 27.54017 | -96.16329 | 5546 ft | 327 kts | 272° |
| 2026-04-27 02:59 | 27.54193 | -96.18866 | 5541 ft | 330 kts | 272° |
| 2026-04-27 02:59 | 27.54376 | -96.21454 | 5543 ft | 331 kts | 272° |
| 2026-04-27 02:59 | 27.54559 | -96.24042 | 5543 ft | 331 kts | 272° |
| 2026-04-27 03:00 | 27.54737 | -96.26626 | 5533 ft | 331 kts | 272° |
| 2026-04-27 03:00 | 27.54917 | -96.29212 | 5533 ft | 331 kts | 272° |
| 2026-04-27 03:00 | 27.55096 | -96.31795 | 5530 ft | 331 kts | 272° |
| 2026-04-27 03:00 | 27.55274 | -96.34384 | 5530 ft | 331 kts | 272° |
| 2026-04-27 03:01 | 27.55452 | -96.36972 | 5531 ft | 331 kts | 272° |
| 2026-04-27 03:01 | 27.55629 | -96.39558 | 5534 ft | 331 kts | 272° |
| 2026-04-27 03:01 | 27.55806 | -96.42151 | 5531 ft | 332 kts | 272° |
| 2026-04-27 03:01 | 27.55982 | -96.44743 | 5519 ft | 332 kts | 272° |
| 2026-04-27 03:02 | 27.56159 | -96.47340 | 5513 ft | 332 kts | 272° |
| 2026-04-27 03:02 | 27.56333 | -96.49898 | 5513 ft | 332 kts | 272° |
| 2026-04-27 03:02 | 27.56510 | -96.52488 | 5461 ft | 329 kts | 272° |
| 2026-04-27 03:02 | 27.56680 | -96.54996 | 4827 ft | 317 kts | 272° |
| 2026-04-27 03:03 | 27.56842 | -96.57466 | 4072 ft | 313 kts | 272° |
| 2026-04-27 03:03 | 27.57155 | -96.62146 | 3514 ft | 283 kts | 272° |
| 2026-04-27 03:03 | 27.57302 | -96.64333 | 3517 ft | 279 kts | 271° |
| 2026-04-27 03:04 | 27.57445 | -96.66507 | 3521 ft | 278 kts | 271° |
| 2026-04-27 03:04 | 27.57586 | -96.68677 | 3529 ft | 278 kts | 270° |
| 2026-04-27 03:04 | 27.57730 | -96.70853 | 3525 ft | 278 kts | 270° |
| 2026-04-27 03:04 | 27.57875 | -96.73023 | 3526 ft | 278 kts | 271° |
| 2026-04-27 03:05 | 27.58018 | -96.75202 | 3520 ft | 279 kts | 271° |
| 2026-04-27 03:05 | 27.58159 | -96.77350 | 3522 ft | 279 kts | 270° |
| 2026-04-27 03:05 | 27.58302 | -96.79534 | 3522 ft | 280 kts | 270° |
| 2026-04-27 03:05 | 27.58446 | -96.81716 | 3522 ft | 279 kts | 271° |
| 2026-04-27 03:06 | 27.58590 | -96.83900 | 3522 ft | 279 kts | 271° |
| 2026-04-27 03:06 | 27.58734 | -96.86063 | 3421 ft | 272 kts | 270° |
| 2026-04-27 03:06 | 27.58872 | -96.88187 | 2898 ft | 272 kts | 270° |
| 2026-04-27 03:06 | 27.59008 | -96.90320 | 2586 ft | 274 kts | 271° |
| 2026-04-27 03:07 | 27.59145 | -96.92474 | 2534 ft | 275 kts | 271° |
| 2026-04-27 03:07 | 27.59283 | -96.94631 | 2529 ft | 276 kts | 271° |
| 2026-04-27 03:07 | 27.59420 | -96.96782 | 2535 ft | 276 kts | 271° |
| 2026-04-27 03:07 | 27.59559 | -96.98944 | 2526 ft | 276 kts | 271° |
| 2026-04-27 03:08 | 27.59699 | -97.01103 | 2536 ft | 276 kts | 271° |
| 2026-04-27 03:08 | 27.59834 | -97.03241 | 2526 ft | 276 kts | 271° |
| 2026-04-27 03:08 | 27.59972 | -97.05404 | 2535 ft | 277 kts | 271° |
| 2026-04-27 03:08 | 27.60111 | -97.07599 | 2523 ft | 277 kts | 271° |
| 2026-04-27 03:09 | 27.60248 | -97.09759 | 2509 ft | 276 kts | 271° |
| 2026-04-27 03:09 | 27.60386 | -97.11919 | 2508 ft | 277 kts | 271° |
| 2026-04-27 03:09 | 27.60520 | -97.14060 | 2508 ft | 277 kts | 271° |
| 2026-04-27 03:09 | 27.60657 | -97.16230 | 2501 ft | 277 kts | 271° |
| 2026-04-27 03:10 | 27.60793 | -97.18398 | 2502 ft | 276 kts | 271° |
| 2026-04-27 03:10 | 27.60925 | -97.20554 | 2507 ft | 275 kts | 271° |
| 2026-04-27 03:10 | 27.61060 | -97.22642 | 2491 ft | 254 kts | 271° |
| 2026-04-27 03:10 | 27.61183 | -97.24534 | 2485 ft | 232 kts | 271° |
| 2026-04-27 03:11 | 27.61295 | -97.26328 | 2508 ft | 227 kts | 270° |
| 2026-04-27 03:11 | 27.61403 | -97.28094 | 2508 ft | 224 kts | 270° |
| 2026-04-27 03:11 | 27.61509 | -97.29843 | 2510 ft | 223 kts | 270° |
| 2026-04-27 03:11 | 27.61614 | -97.31514 | 2244 ft | 207 kts | 270° |
| 2026-04-27 03:12 | 27.61813 | -97.33088 | 2034 ft | 196 kts | 281° |
| 2026-04-27 03:12 | 27.62358 | -97.34412 | 2001 ft | 182 kts | 307° |
| 2026-04-27 03:12 | 27.63182 | -97.35468 | 2014 ft | 178 kts | 314° |
| 2026-04-27 03:12 | 27.64057 | -97.36449 | 2013 ft | 177 kts | 315° |
| 2026-04-27 03:13 | 27.64941 | -97.37417 | 1964 ft | 177 kts | 315° |
| 2026-04-27 03:13 | 27.65814 | -97.38367 | 1761 ft | 173 kts | 316° |
| 2026-04-27 03:13 | 27.66675 | -97.39305 | 1713 ft | 171 kts | 316° |
| 2026-04-27 03:13 | 27.67530 | -97.40239 | 1714 ft | 171 kts | 316° |
| 2026-04-27 03:14 | 27.68387 | -97.41175 | 1711 ft | 171 kts | 316° |
| 2026-04-27 03:14 | 27.69246 | -97.42108 | 1712 ft | 172 kts | 316° |
| 2026-04-27 03:14 | 27.70104 | -97.43043 | 1715 ft | 173 kts | 316° |
| 2026-04-27 03:14 | 27.70953 | -97.43965 | 1640 ft | 165 kts | 316° |
| 2026-04-27 03:15 | 27.71795 | -97.44883 | 1528 ft | 172 kts | 316° |
| 2026-04-27 03:15 | 27.72658 | -97.45827 | 1294 ft | 173 kts | 316° |
| 2026-04-27 03:15 | 27.73521 | -97.46770 | 1007 ft | 172 kts | 316° |
| 2026-04-27 03:15 | 27.74378 | -97.47704 | 736 ft | 171 kts | 316° |
| 2026-04-27 03:16 | 27.75216 | -97.48614 | 487 ft | 170 kts | 316° |
| 2026-04-27 03:16 | 27.76028 | -97.49517 | 275 ft | 152 kts | 317° |
| 2026-04-27 03:16 | 27.76714 | -97.50287 | 62 ft | 123 kts | 322° |
| 2026-04-27 03:16 | 27.77214 | -97.50809 | 59 ft | 67 kts | 315° |
| 2026-04-27 03:17 | 27.77431 | -97.51047 | 60 ft | 20 kts | 305° |
| 2026-04-27 03:17 | 27.77564 | -97.51195 | 62 ft | 37 kts | 322° |
| 2026-04-27 03:17 | 27.77699 | -97.51302 | 61 ft | 8 kts | 4° |
| 2026-04-27 03:17 | 27.77743 | -97.51232 | 56 ft | 4 kts | 55° |
| 2026-04-27 03:18 | 27.77760 | -97.51206 | 61 ft | 10 kts | 56° |
| 2026-04-27 03:18 | 27.77769 | -97.51124 | 64 ft | 11 kts | 72° |
| 2026-04-27 03:18 | 27.77830 | -97.51033 | 64 ft | 18 kts | 44° |
| 2026-04-27 03:18 | 27.77926 | -97.50934 | 61 ft | 16 kts | 30° |
| 2026-04-27 03:19 | 27.77993 | -97.50952 | 60 ft | 5 kts | 350° |
| 2026-04-27 03:19 | 27.78026 | -97.50935 | 63 ft | 3 kts | 41° |
| 2026-04-27 03:19 | 27.78030 | -97.50930 | 61 ft | 0 kts | 42° |